Time;durP1;ratioP1;P1;durP2;ratioP2;P2;SDS_P1;SDS_P2;PMS_P1;PMS_P2;Temp;Humidity;BMP_temperature;BMP_pressure;BME280_temperature;BME280_humidity;BME280_pressure;Samples;Min_cycle;Max_cycle;Signal;HPM_P1;HPM_P2
2021/03/05 00:04:31;;;;;;;6.63;3.58;;;16.40;62.40;;;;;;4971500;28;20072;-57
2021/03/05 00:06:56;;;;;;;6.72;2.85;;;16.30;62.30;;;;;;5042892;23;20404;-56
2021/03/05 00:09:22;;;;;;;7.82;3.33;;;16.30;62.30;;;;;;5037658;28;20032;-57
2021/03/05 00:11:47;;;;;;;5.65;2.90;;;16.30;62.30;;;;;;5038476;28;20391;-56
2021/03/05 00:14:13;;;;;;;6.70;3.33;;;16.30;62.30;;;;;;5040464;28;20017;-57
2021/03/05 00:16:38;;;;;;;5.95;3.30;;;16.30;62.30;;;;;;5058118;28;20125;-56
2021/03/05 00:22:25;;;;;;;7.75;3.28;;;16.30;62.20;;;;;;5050955;28;20027;-58
2021/03/05 00:24:51;;;;;;;7.30;3.33;;;16.30;62.20;;;;;;5060041;28;20036;-56
2021/03/05 00:27:17;;;;;;;7.85;3.60;;;16.30;62.20;;;;;;5058268;28;20506;-56
2021/03/05 00:29:43;;;;;;;6.40;3.58;;;16.30;62.30;;;;;;5050543;28;20115;-56
2021/03/05 00:32:08;;;;;;;7.25;3.80;;;16.30;62.20;;;;;;5034878;28;20481;-56
2021/03/05 00:34:35;;;;;;;7.35;4.43;;;16.20;62.10;;;;;;5045582;28;20482;-56
2021/03/05 00:37:02;;;;;;;5.90;3.40;;;16.20;62.10;;;;;;5038870;28;20457;-56
2021/03/05 00:39:28;;;;;;;7.20;3.88;;;16.20;62.10;;;;;;5034265;28;20025;-56
2021/03/05 00:41:54;;;;;;;7.45;4.18;;;16.20;62.60;;;;;;5033166;28;20064;-56
2021/03/05 00:44:21;;;;;;;6.60;3.47;;;16.20;62.10;;;;;;5034453;28;20078;-56
2021/03/05 00:46:46;;;;;;;7.28;3.85;;;16.20;62.10;;;;;;5034150;28;20033;-56
2021/03/05 00:49:12;;;;;;;7.00;4.25;;;16.20;62.00;;;;;;5034134;28;20026;-56
2021/03/05 00:51:38;;;;;;;7.00;3.80;;;16.20;61.90;;;;;;5034230;28;20060;-56
2021/03/05 00:54:04;;;;;;;7.30;4.07;;;16.20;61.90;;;;;;5034062;28;20388;-56
2021/03/05 00:56:29;;;;;;;7.30;4.18;;;16.10;61.80;;;;;;5045160;28;20033;-56
2021/03/05 00:58:55;;;;;;;7.43;4.35;;;16.20;61.80;;;;;;5033826;28;20029;-56
2021/03/05 01:01:20;;;;;;;7.65;4.55;;;16.10;61.80;;;;;;5035162;28;20034;-56
2021/03/05 01:03:46;;;;;;;8.23;4.63;;;16.10;61.70;;;;;;5034008;28;20510;-56
2021/03/05 01:06:11;;;;;;;9.40;4.90;;;16.10;61.80;;;;;;5043212;28;20478;-56
2021/03/05 01:08:37;;;;;;;7.57;4.70;;;16.10;61.70;;;;;;5057122;28;20052;-56
2021/03/05 01:11:03;;;;;;;7.78;4.70;;;16.10;61.70;;;;;;5052799;28;20115;-57
2021/03/05 01:13:28;;;;;;;7.97;4.60;;;16.10;61.60;;;;;;5067468;28;20491;-56
2021/03/05 01:15:54;;;;;;;8.02;5.10;;;16.10;61.60;;;;;;5064202;28;20037;-56
2021/03/05 01:18:19;;;;;;;8.20;4.70;;;16.10;61.70;;;;;;5053113;28;20028;-56
2021/03/05 01:20:45;;;;;;;7.82;4.75;;;16.10;61.70;;;;;;5040784;28;20040;-56
2021/03/05 01:23:13;;;;;;;8.98;4.95;;;16.10;61.60;;;;;;5046353;28;20047;-56
2021/03/05 01:25:39;;;;;;;7.93;4.57;;;16.10;61.60;;;;;;5052004;28;20449;-56
2021/03/05 01:28:04;;;;;;;8.00;5.32;;;16.10;61.60;;;;;;5045195;28;20029;-56
2021/03/05 01:30:30;;;;;;;7.13;4.10;;;16.10;61.60;;;;;;5049231;28;20025;-56
2021/03/05 01:32:55;;;;;;;8.23;4.80;;;16.00;61.50;;;;;;5034314;28;20447;-56
2021/03/05 01:35:24;;;;;;;8.73;4.65;;;16.00;61.60;;;;;;5034448;28;20033;-56
2021/03/05 01:37:50;;;;;;;8.15;4.50;;;16.00;61.60;;;;;;5033060;28;20017;-56
2021/03/05 01:40:19;;;;;;;8.50;4.32;;;16.00;61.60;;;;;;5033157;28;20021;-56
2021/03/05 01:46:07;;;;;;;7.38;3.97;;;16.00;61.60;;;;;;5037848;28;20039;-56
2021/03/05 01:48:39;;;;;;;6.70;3.80;;;16.00;61.60;;;;;;5049606;28;20021;-56
2021/03/05 01:51:17;;;;;;;7.88;3.90;;;15.90;61.50;;;;;;5038330;28;20037;-56
2021/03/05 01:53:44;;;;;;;8.45;3.80;;;16.00;61.60;;;;;;5034141;28;20515;-56
2021/03/05 01:56:28;;;;;;;6.82;4.20;;;16.00;61.60;;;;;;5050264;28;20033;-56
2021/03/05 01:58:54;;;;;;;6.82;3.80;;;16.00;61.60;;;;;;5035403;28;20053;-56
2021/03/05 02:05:22;;;;;;;6.85;3.55;;;15.90;61.50;;;;;;5045347;28;20072;-56
2021/03/05 02:18:09;;;;;;;6.57;3.00;;;15.90;61.60;;;;;;5045899;28;20044;-56
2021/03/05 02:21:32;;;;;;;6.78;3.33;;;15.80;61.60;;;;;;5048781;28;20100;-56
2021/03/05 02:24:36;;;;;;;4.80;2.78;;;15.80;61.70;;;;;;5030350;28;20033;-56
2021/03/05 02:27:17;;;;;;;6.00;2.83;;;15.80;61.70;;;;;;5029549;28;20065;-56
2021/03/05 02:30:30;;;;;;;6.50;3.10;;;15.80;61.70;;;;;;5036032;28;20093;-56
2021/03/05 02:33:31;;;;;;;6.00;2.90;;;15.80;61.60;;;;;;5036224;28;20581;-56
2021/03/05 02:35:58;;;;;;;4.68;2.53;;;15.80;61.70;;;;;;5027981;28;20045;-56
2021/03/05 02:38:27;;;;;;;5.38;2.30;;;15.80;61.80;;;;;;5035980;28;20401;-56
2021/03/05 02:40:54;;;;;;;5.93;2.40;;;15.80;61.80;;;;;;5029975;28;20076;-56
2021/03/05 02:43:22;;;;;;;6.78;2.83;;;15.70;61.80;;;;;;5052202;28;20083;-56
2021/03/05 02:45:57;;;;;;;4.68;2.30;;;15.80;61.80;;;;;;5037386;28;20036;-56
2021/03/05 02:48:29;;;;;;;4.53;2.30;;;15.70;61.70;;;;;;5038661;28;20420;-56
2021/03/05 02:51:01;;;;;;;3.65;2.00;;;15.70;61.70;;;;;;5037388;28;20017;-56
2021/03/05 02:53:28;;;;;;;4.65;2.10;;;15.70;61.60;;;;;;5045098;28;20116;-56
2021/03/05 02:55:58;;;;;;;3.78;1.70;;;15.70;61.60;;;;;;5037451;28;20099;-56
2021/03/05 02:58:26;;;;;;;3.95;1.92;;;15.70;61.90;;;;;;5050944;28;20108;-56
2021/03/05 03:00:53;;;;;;;4.45;2.25;;;15.70;61.50;;;;;;5045320;28;20029;-56
2021/03/05 03:03:20;;;;;;;4.68;2.03;;;15.70;61.50;;;;;;5030576;28;20022;-56
2021/03/05 03:05:47;;;;;;;4.53;1.75;;;15.70;61.40;;;;;;5042550;28;20410;-56
2021/03/05 03:08:13;;;;;;;5.10;1.90;;;15.70;61.50;;;;;;5039135;28;20056;-55
2021/03/05 03:10:40;;;;;;;3.90;1.80;;;15.60;61.40;;;;;;5050931;28;20451;-56
2021/03/05 03:13:07;;;;;;;3.38;1.60;;;15.60;61.50;;;;;;5047154;28;20032;-56
2021/03/05 03:15:34;;;;;;;3.15;1.60;;;15.60;61.40;;;;;;5035126;28;20487;-56
2021/03/05 03:21:22;;;;;;;4.13;1.52;;;15.60;61.40;;;;;;5036656;28;20031;-56
2021/03/05 03:23:47;;;;;;;2.97;1.50;;;15.60;61.40;;;;;;5050700;28;20100;-56
2021/03/05 03:26:13;;;;;;;3.45;1.48;;;15.60;61.40;;;;;;5037352;28;20144;-56
2021/03/05 03:28:38;;;;;;;2.58;1.50;;;15.60;61.50;;;;;;5050407;28;20033;-56
2021/03/05 03:31:08;;;;;;;4.15;1.42;;;15.50;61.40;;;;;;5040392;28;20038;-56
2021/03/05 03:33:35;;;;;;;2.92;1.40;;;15.50;61.40;;;;;;5030254;28;20476;-56
2021/03/05 03:39:24;;;;;;;2.92;1.40;;;15.50;61.30;;;;;;5041651;28;20066;-56
2021/03/05 03:41:50;;;;;;;3.33;1.50;;;15.50;61.30;;;;;;5036341;28;20056;-56
2021/03/05 03:44:16;;;;;;;3.25;1.30;;;15.50;61.30;;;;;;5043312;28;20032;-57
2021/03/05 03:46:50;;;;;;;2.55;1.23;;;15.50;61.30;;;;;;5033160;28;20487;-56
2021/03/05 03:49:29;;;;;;;4.00;1.38;;;15.50;61.30;;;;;;5036361;28;20491;-56
2021/03/05 03:51:59;;;;;;;2.78;1.10;;;15.40;61.30;;;;;;5040496;28;20513;-56
2021/03/05 03:54:26;;;;;;;4.30;1.35;;;15.40;61.30;;;;;;5039986;28;20041;-56
2021/03/05 03:56:54;;;;;;;2.72;1.30;;;15.40;61.30;;;;;;5038024;28;20038;-56
2021/03/05 03:59:22;;;;;;;4.25;1.20;;;15.40;61.30;;;;;;5042276;28;20013;-56
2021/03/05 04:01:49;;;;;;;4.38;1.42;;;15.40;61.30;;;;;;5048365;28;20091;-56
2021/03/05 04:04:17;;;;;;;3.13;1.20;;;15.40;61.30;;;;;;5049005;28;20022;-56
2021/03/05 04:06:48;;;;;;;2.95;1.20;;;15.40;61.30;;;;;;5032173;28;20688;-56
2021/03/05 04:09:16;;;;;;;2.53;1.20;;;15.40;61.40;;;;;;5031703;28;20038;-56
2021/03/05 04:11:42;;;;;;;4.05;1.10;;;15.40;61.30;;;;;;5040102;28;20082;-56
2021/03/05 04:14:08;;;;;;;3.67;1.20;;;15.30;61.30;;;;;;5045209;28;20033;-56
2021/03/05 04:16:33;;;;;;;3.53;1.00;;;15.40;61.40;;;;;;5043139;28;20029;-56
2021/03/05 04:18:59;;;;;;;2.35;0.95;;;15.30;61.30;;;;;;5044683;28;20494;-56
2021/03/05 04:21:34;;;;;;;3.47;1.13;;;15.30;61.40;;;;;;5043075;28;20104;-56
2021/03/05 04:24:00;;;;;;;2.65;1.20;;;15.30;61.40;;;;;;5040564;28;20033;-56
2021/03/05 04:26:25;;;;;;;2.72;1.10;;;15.20;61.40;;;;;;5047882;28;20040;-56
2021/03/05 04:28:51;;;;;;;1.95;0.90;;;15.20;61.40;;;;;;5039111;28;20047;-56
2021/03/05 04:31:17;;;;;;;3.20;1.20;;;15.30;61.50;;;;;;5038994;28;20025;-56
2021/03/05 04:33:42;;;;;;;3.45;1.20;;;15.20;61.40;;;;;;5034322;28;20025;-56
2021/03/05 04:36:08;;;;;;;2.85;0.90;;;15.20;61.50;;;;;;5034277;28;20033;-56
2021/03/05 04:38:34;;;;;;;2.47;0.98;;;15.20;61.50;;;;;;5035078;28;20025;-56
2021/03/05 04:40:59;;;;;;;2.38;1.00;;;15.20;61.60;;;;;;5049345;28;20028;-56
2021/03/05 04:43:25;;;;;;;4.43;1.30;;;15.20;62.10;;;;;;5044875;28;20079;-56
2021/03/05 04:45:51;;;;;;;2.92;1.00;;;15.20;61.60;;;;;;5036291;28;20516;-56
2021/03/05 04:48:16;;;;;;;2.22;1.00;;;15.20;61.60;;;;;;5033710;28;20034;-56
2021/03/05 04:50:42;;;;;;;2.60;1.00;;;15.20;61.60;;;;;;5032921;28;20025;-56
2021/03/05 04:53:08;;;;;;;2.00;0.90;;;15.10;61.60;;;;;;5042598;28;20618;-56
2021/03/05 04:55:34;;;;;;;25.35;1.65;;;15.10;61.60;;;;;;5035258;28;20127;-56
2021/03/05 04:57:59;;;;;;;1.95;0.88;;;15.10;61.60;;;;;;5032912;28;20045;-56
2021/03/05 05:00:25;;;;;;;2.13;1.15;;;15.10;61.50;;;;;;5035970;28;20933;-56
2021/03/05 05:02:51;;;;;;;4.22;1.00;;;15.10;61.60;;;;;;5038582;28;20112;-56
2021/03/05 05:05:16;;;;;;;4.53;1.30;;;15.10;61.60;;;;;;5029087;28;20033;-57
2021/03/05 05:07:42;;;;;;;3.90;0.90;;;15.10;61.70;;;;;;5040367;28;20086;-56
2021/03/05 05:10:09;;;;;;;5.00;1.00;;;15.10;61.70;;;;;;5043014;28;20517;-56
2021/03/05 05:12:35;;;;;;;3.47;1.00;;;15.10;61.60;;;;;;5034578;28;20035;-56
2021/03/05 05:15:00;;;;;;;3.03;1.00;;;15.10;61.60;;;;;;5032942;28;20033;-56
2021/03/05 05:17:26;;;;;;;4.38;1.00;;;15.00;61.60;;;;;;5042131;28;20032;-56
2021/03/05 05:19:53;;;;;;;4.72;1.10;;;15.10;61.70;;;;;;5044932;28;20043;-56
2021/03/05 05:22:19;;;;;;;3.05;1.00;;;14.90;61.60;;;;;;5046867;28;20029;-56
2021/03/05 05:24:44;;;;;;;3.05;1.00;;;15.10;61.70;;;;;;5063108;28;20025;-56
2021/03/05 05:27:10;;;;;;;2.50;0.93;;;15.10;61.70;;;;;;5047680;28;20429;-57
2021/03/05 05:29:35;;;;;;;3.67;1.10;;;15.10;61.80;;;;;;5047042;28;20067;-56
2021/03/05 05:32:01;;;;;;;3.05;0.98;;;15.10;61.80;;;;;;5047152;28;20033;-56
2021/03/05 05:34:26;;;;;;;33.13;25.27;;;15.10;61.90;;;;;;5046786;28;20021;-55
2021/03/05 05:36:52;;;;;;;18.55;8.93;;;15.10;62.00;;;;;;5046533;28;20036;-56
2021/03/05 05:39:17;;;;;;;17.88;9.90;;;15.10;62.20;;;;;;5045444;28;20024;-55
2021/03/05 05:41:43;;;;;;;13.70;4.97;;;15.10;62.30;;;;;;5047109;28;20025;-56
2021/03/05 05:44:08;;;;;;;10.98;4.15;;;15.10;62.30;;;;;;5046782;28;20037;-56
2021/03/05 05:46:35;;;;;;;10.23;3.58;;;15.10;62.30;;;;;;5046810;28;20035;-56
2021/03/05 05:49:03;;;;;;;8.77;3.00;;;15.10;62.30;;;;;;5046900;28;20044;-56
2021/03/05 05:51:32;;;;;;;9.63;2.55;;;15.00;62.00;;;;;;5044938;28;20382;-55
2021/03/05 05:54:02;;;;;;;9.90;2.80;;;15.00;62.30;;;;;;5034899;28;20576;-55
2021/03/05 05:56:29;;;;;;;11.38;3.00;;;15.10;62.50;;;;;;5034097;28;20021;-54
2021/03/05 05:58:55;;;;;;;14.20;3.10;;;15.10;62.50;;;;;;5044788;28;20059;-54
2021/03/05 06:01:20;;;;;;;20.33;3.72;;;15.10;62.70;;;;;;5030631;28;20026;-53
2021/03/05 06:03:46;;;;;;;17.63;4.88;;;15.10;62.60;;;;;;5032497;28;20449;-53
2021/03/05 06:06:12;;;;;;;14.35;4.03;;;15.10;62.50;;;;;;5053595;22;20056;-60
2021/03/05 06:08:38;;;;;;;10.98;3.78;;;15.10;62.30;;;;;;5014181;28;20025;-57
2021/03/05 06:11:03;;;;;;;12.57;3.90;;;15.10;62.20;;;;;;5032647;28;20021;-58
2021/03/05 06:13:29;;;;;;;13.48;4.03;;;15.10;62.20;;;;;;5032782;28;20071;-57
2021/03/05 06:16:15;;;;;;;8.98;2.90;;;15.10;62.10;;;;;;5018017;28;20036;-57
2021/03/05 06:18:40;;;;;;;11.68;2.97;;;15.10;62.00;;;;;;5034673;28;20037;-57
2021/03/05 06:21:06;;;;;;;10.73;2.90;;;15.10;61.90;;;;;;5034592;28;20155;-58
2021/03/05 06:23:34;;;;;;;9.07;2.78;;;15.10;61.80;;;;;;5034721;28;20025;-58
2021/03/05 06:26:01;;;;;;;12.45;2.70;;;15.20;61.70;;;;;;5034523;28;20423;-59
2021/03/05 06:28:27;;;;;;;7.18;2.55;;;15.20;61.70;;;;;;5052114;28;20401;-59
2021/03/05 06:30:54;;;;;;;9.27;2.70;;;15.20;61.50;;;;;;5052326;28;20059;-59
2021/03/05 06:33:30;;;;;;;7.85;2.33;;;15.30;61.30;;;;;;5051575;28;20032;-57
2021/03/05 06:36:16;;;;;;;9.10;2.35;;;15.30;61.10;;;;;;5052148;28;20020;-59
2021/03/05 06:38:44;;;;;;;7.35;2.10;;;15.30;60.80;;;;;;5051421;28;20056;-55
2021/03/05 06:41:35;;;;;;;6.40;2.00;;;15.40;60.50;;;;;;5052356;28;20025;-57
2021/03/05 06:44:01;;;;;;;;;;;15.50;60.70;;;;;;5052642;28;20025;-58
2021/03/05 06:46:37;;;;;;;6.20;2.10;;;15.60;60.10;;;;;;5051743;28;19931;-59
2021/03/05 06:49:13;;;;;;;7.00;2.03;;;15.50;60.00;;;;;;5051723;28;20528;-59
2021/03/05 06:51:39;;;;;;;7.63;1.90;;;15.50;60.20;;;;;;5034108;28;20033;-59
2021/03/05 06:54:09;;;;;;;7.50;1.83;;;15.50;60.30;;;;;;5034128;28;20090;-58
2021/03/05 06:56:36;;;;;;;7.05;1.90;;;15.50;60.40;;;;;;5051764;28;20044;-59
2021/03/05 06:59:10;;;;;;;6.40;1.95;;;15.40;60.40;;;;;;5051586;28;20044;-60
2021/03/05 07:01:58;;;;;;;7.57;1.90;;;15.50;60.40;;;;;;5033901;28;20032;-59
2021/03/05 07:04:25;;;;;;;5.72;1.75;;;15.50;60.30;;;;;;5033916;28;20565;-58
2021/03/05 07:07:01;;;;;;;10.10;2.03;;;15.60;60.30;;;;;;5051592;28;20047;-58
2021/03/05 07:09:33;;;;;;;11.90;2.33;;;15.60;60.30;;;;;;5051197;28;20025;-57
2021/03/05 07:12:05;;;;;;;6.95;1.70;;;15.60;60.80;;;;;;5051053;28;20066;-57
2021/03/05 07:14:32;;;;;;;11.65;2.10;;;15.70;60.20;;;;;;5033241;28;20137;-58
2021/03/05 07:17:00;;;;;;;7.38;1.80;;;15.70;60.10;;;;;;5051231;28;20475;-57
2021/03/05 07:19:30;;;;;;;8.32;1.60;;;15.70;60.00;;;;;;5051133;28;20525;-57
2021/03/05 07:21:56;;;;;;;7.30;1.60;;;15.80;60.00;;;;;;5051555;28;20091;-56
2021/03/05 07:24:24;;;;;;;9.30;1.83;;;15.80;59.90;;;;;;5051564;28;20027;-58
2021/03/05 07:26:59;;;;;;;11.70;2.28;;;15.90;59.90;;;;;;5017047;28;20100;-58
2021/03/05 07:29:43;;;;;;;12.98;2.10;;;15.90;59.80;;;;;;5051195;28;20502;-57
2021/03/05 07:32:11;;;;;;;12.02;2.90;;;16.00;59.70;;;;;;5051504;28;20509;-56
2021/03/05 07:34:47;;;;;;;16.02;3.63;;;16.10;59.20;;;;;;5051417;28;20083;-57
2021/03/05 07:37:13;;;;;;;22.20;4.25;;;16.20;59.30;;;;;;5051275;28;20112;-67
2021/03/05 07:39:42;;;;;;;13.35;3.42;;;16.30;58.90;;;;;;5032679;28;20025;-64
2021/03/05 07:42:09;;;;;;;13.68;3.33;;;16.50;58.40;;;;;;5051363;28;20021;-67
2021/03/05 07:44:36;;;;;;;15.57;3.42;;;16.60;58.20;;;;;;5053309;28;20044;-67
2021/03/05 07:47:06;;;;;;;10.63;2.92;;;16.70;57.80;;;;;;5055313;28;20029;-63
2021/03/05 07:49:34;;;;;;;13.15;2.80;;;16.80;57.80;;;;;;5055147;28;20102;-64
2021/03/05 07:52:00;;;;;;;10.43;3.15;;;16.90;57.30;;;;;;5037466;28;20033;-66
2021/03/05 07:54:45;;;;;;;9.40;2.50;;;16.90;57.50;;;;;;5037371;28;20021;-66
2021/03/05 07:57:46;;;;;;;7.88;2.47;;;17.00;57.20;;;;;;5055099;28;20032;-66
2021/03/05 08:00:14;;;;;;;9.77;2.42;;;17.20;57.30;;;;;;5054978;28;20017;-62
2021/03/05 08:02:59;;;;;;;10.15;2.75;;;17.30;56.70;;;;;;5055189;28;20027;-63
2021/03/05 08:05:41;;;;;;;8.07;2.30;;;17.40;56.80;;;;;;5055125;28;20029;-59
2021/03/05 08:08:09;;;;;;;10.55;2.50;;;17.40;56.20;;;;;;5055034;28;20037;-62
2021/03/05 08:10:36;;;;;;;9.25;2.83;;;17.50;56.10;;;;;;5054861;28;20632;-64
2021/03/05 08:13:02;;;;;;;8.75;2.90;;;17.60;56.00;;;;;;5054982;28;20389;-69
2021/03/05 08:15:27;;;;;;;9.93;2.42;;;17.70;55.40;;;;;;5054686;28;20025;-55
2021/03/05 08:17:54;;;;;;;11.07;2.67;;;17.70;55.60;;;;;;5054849;28;20402;-57
2021/03/05 08:20:20;;;;;;;7.00;2.35;;;17.70;55.50;;;;;;5036629;28;20048;-60
2021/03/05 08:23:04;;;;;;;7.05;2.13;;;17.60;56.10;;;;;;5054805;28;20044;-56
2021/03/05 08:25:30;;;;;;;8.73;2.40;;;17.70;55.70;;;;;;5054720;28;20036;-56
2021/03/05 08:27:58;;;;;;;7.30;2.20;;;17.70;55.60;;;;;;5054604;28;20056;-58
2021/03/05 08:30:29;;;;;;;9.02;2.83;;;17.70;55.30;;;;;;5054409;28;20479;-58
2021/03/05 08:32:58;;;;;;;11.32;2.70;;;17.80;55.00;;;;;;5054589;28;20071;-58
2021/03/05 08:35:29;;;;;;;11.55;2.70;;;17.80;55.10;;;;;;5036579;28;20025;-57
2021/03/05 08:37:58;;;;;;;14.65;6.65;;;17.80;54.90;;;;;;5054450;28;20182;-59
2021/03/05 08:40:29;;;;;;;11.02;7.72;;;17.80;54.80;;;;;;5053722;28;20546;-57
2021/03/05 08:42:57;;;;;;;24.50;11.48;;;17.90;54.70;;;;;;5054441;28;20549;-58
2021/03/05 08:45:29;;;;;;;18.42;13.20;;;17.90;54.50;;;;;;5054446;28;20371;-58
2021/03/05 08:47:56;;;;;;;23.27;10.55;;;17.90;54.50;;;;;;5054283;28;20021;-57
2021/03/05 08:50:30;;;;;;;17.95;10.35;;;18.00;54.40;;;;;;5053997;28;20021;-57
2021/03/05 08:52:58;;;;;;;23.45;9.60;;;18.00;54.20;;;;;;5036463;28;20121;-57
2021/03/05 08:55:23;;;;;;;17.00;9.38;;;18.00;54.10;;;;;;5053319;28;20036;-58
2021/03/05 08:57:52;;;;;;;16.10;9.52;;;18.10;54.10;;;;;;5054017;28;20078;-58
2021/03/05 09:00:20;;;;;;;15.63;8.70;;;18.20;54.60;;;;;;5053875;28;20024;-57
2021/03/05 09:02:47;;;;;;;17.45;7.55;;;18.20;53.90;;;;;;5053799;28;20571;-58
2021/03/05 09:05:23;;;;;;;13.15;7.30;;;18.30;53.80;;;;;;5054040;28;20498;-57
2021/03/05 09:07:56;;;;;;;13.77;6.75;;;18.30;53.70;;;;;;5053693;28;20072;-58
2021/03/05 09:10:42;;;;;;;12.70;5.93;;;18.40;53.40;;;;;;5035783;28;20029;-58
2021/03/05 09:13:08;;;;;;;11.38;5.18;;;18.50;53.30;;;;;;5053305;28;20029;-58
2021/03/05 09:15:54;;;;;;;9.52;5.00;;;18.60;53.20;;;;;;5035679;28;20036;-57
2021/03/05 09:18:30;;;;;;;11.00;5.15;;;18.70;53.10;;;;;;5053432;28;20526;-58
2021/03/05 09:21:10;;;;;;;11.27;4.72;;;18.70;53.00;;;;;;5053646;28;20167;-58
2021/03/05 09:23:44;;;;;;;9.55;4.10;;;18.80;53.00;;;;;;5053487;28;20058;-59
2021/03/05 09:26:15;;;;;;;10.85;4.25;;;18.80;52.80;;;;;;5035630;28;20033;-59
2021/03/05 09:28:42;;;;;;;10.93;4.05;;;18.90;52.70;;;;;;5035290;28;20498;-58
2021/03/05 09:31:09;;;;;;;10.52;3.80;;;18.90;52.60;;;;;;5035550;28;20024;-59
2021/03/05 09:33:37;;;;;;;9.82;4.20;;;18.90;52.60;;;;;;5035470;28;20029;-57
2021/03/05 09:36:06;;;;;;;9.48;3.40;;;18.90;52.60;;;;;;5053232;28;20478;-58
2021/03/05 09:38:33;;;;;;;9.13;3.45;;;19.00;52.60;;;;;;5052950;28;20226;-59
2021/03/05 09:41:20;;;;;;;10.75;3.42;;;19.00;52.50;;;;;;5018508;28;20029;-59
2021/03/05 09:43:56;;;;;;;8.43;3.28;;;19.00;52.50;;;;;;5053211;28;20443;-57
2021/03/05 09:46:24;;;;;;;10.35;3.47;;;19.00;52.50;;;;;;5053485;28;20410;-57
2021/03/05 09:48:51;;;;;;;19.27;3.65;;;19.10;52.60;;;;;;5034992;28;20035;-57
2021/03/05 09:51:17;;;;;;;10.68;3.00;;;19.10;52.30;;;;;;5053044;28;20021;-58
2021/03/05 09:53:57;;;;;;;8.23;2.72;;;19.10;52.40;;;;;;5053294;28;20036;-57
2021/03/05 09:56:26;;;;;;;7.70;2.70;;;19.10;52.50;;;;;;5035095;28;20542;-58
2021/03/05 09:58:58;;;;;;;10.13;2.72;;;19.10;52.50;;;;;;5052743;28;20088;-57
2021/03/05 10:01:27;;;;;;;7.13;2.55;;;19.10;52.50;;;;;;5052947;28;20020;-57
2021/03/05 10:03:58;;;;;;;9.40;2.80;;;19.10;52.50;;;;;;5034695;28;20031;-57
2021/03/05 10:06:28;;;;;;;12.70;3.05;;;19.10;52.40;;;;;;5034849;28;20037;-57
2021/03/05 10:09:06;;;;;;;12.65;2.95;;;19.20;52.40;;;;;;5051529;28;20422;-59
2021/03/05 10:11:40;;;;;;;10.68;2.63;;;19.20;52.30;;;;;;5035005;28;20375;-59
2021/03/05 10:14:07;;;;;;;6.80;2.47;;;19.20;52.30;;;;;;5052643;28;20064;-57
2021/03/05 10:16:35;;;;;;;7.50;2.20;;;19.20;52.20;;;;;;5052759;28;20029;-59
2021/03/05 10:19:01;;;;;;;7.63;2.60;;;19.20;52.10;;;;;;5034366;28;20017;-57
2021/03/05 10:21:27;;;;;;;7.35;2.33;;;19.20;52.10;;;;;;5052543;28;20540;-56
2021/03/05 10:23:53;;;;;;;6.40;2.22;;;19.20;52.10;;;;;;5052376;28;20021;-58
2021/03/05 10:26:25;;;;;;;8.13;2.50;;;19.30;52.00;;;;;;5052379;28;20067;-57
2021/03/05 10:29:06;;;;;;;6.35;2.13;;;19.30;52.00;;;;;;5034142;28;20486;-58
2021/03/05 10:31:47;;;;;;;6.03;2.10;;;19.30;52.00;;;;;;5052527;28;20155;-57
2021/03/05 10:34:20;;;;;;;5.75;2.33;;;19.40;51.90;;;;;;5034507;28;20040;-57
2021/03/05 10:36:46;;;;;;;7.47;1.98;;;19.40;51.80;;;;;;5052047;28;20029;-58
2021/03/05 10:39:11;;;;;;;5.63;2.03;;;19.40;51.70;;;;;;5051530;28;20035;-58
2021/03/05 10:41:37;;;;;;;4.88;1.83;;;19.40;51.70;;;;;;5052141;28;20425;-58
2021/03/05 10:44:03;;;;;;;6.25;2.00;;;19.50;51.60;;;;;;5051983;28;20028;-58
2021/03/05 10:46:29;;;;;;;6.05;1.80;;;19.50;51.30;;;;;;5052021;28;20115;-57
2021/03/05 10:48:54;;;;;;;4.80;1.75;;;19.30;51.40;;;;;;5051731;28;20071;-57
2021/03/05 10:51:19;;;;;;;3.92;1.67;;;19.40;52.30;;;;;;5034141;28;20021;-56
2021/03/05 10:53:45;;;;;;;6.75;2.10;;;19.40;51.60;;;;;;5051829;28;20402;-58
2021/03/05 10:56:10;;;;;;;6.03;2.15;;;19.40;51.40;;;;;;5033969;28;20052;-58
2021/03/05 10:58:36;;;;;;;5.82;1.73;;;19.30;51.30;;;;;;5051038;28;20032;-59
2021/03/05 11:01:01;;;;;;;4.80;1.70;;;19.30;51.60;;;;;;5051758;28;20394;-57
2021/03/05 11:03:27;;;;;;;6.07;1.90;;;19.20;51.50;;;;;;5051807;28;20020;-57
2021/03/05 11:05:52;;;;;;;4.28;1.70;;;19.20;52.10;;;;;;5051546;28;20044;-58
2021/03/05 11:08:19;;;;;;;7.25;1.92;;;19.20;51.70;;;;;;5051365;28;20032;-58
2021/03/05 11:10:45;;;;;;;5.60;1.70;;;19.10;51.60;;;;;;5051579;28;20078;-58
2021/03/05 11:13:11;;;;;;;5.65;1.60;;;19.20;51.90;;;;;;5051651;28;20025;-58
2021/03/05 11:15:37;;;;;;;8.75;1.60;;;19.30;51.50;;;;;;5051477;28;20053;-56
2021/03/05 11:18:02;;;;;;;7.57;2.08;;;19.40;51.30;;;;;;5051577;28;20025;-58
2021/03/05 11:20:28;;;;;;;6.20;1.70;;;19.40;51.10;;;;;;5033383;28;20103;-57
2021/03/05 11:22:53;;;;;;;4.82;1.65;;;19.50;50.90;;;;;;5033868;28;20024;-58
2021/03/05 11:25:19;;;;;;;4.07;1.30;;;19.50;50.90;;;;;;5051515;28;20031;-58
2021/03/05 11:27:45;;;;;;;4.00;1.60;;;19.50;50.80;;;;;;5051413;28;20040;-58
2021/03/05 11:30:11;;;;;;;4.05;1.35;;;19.50;50.60;;;;;;5033416;28;20060;-57
2021/03/05 11:32:36;;;;;;;4.13;1.50;;;19.60;50.50;;;;;;5051493;28;20062;-58
2021/03/05 11:35:03;;;;;;;3.38;1.30;;;19.50;50.60;;;;;;5051329;28;20032;-58
2021/03/05 11:37:29;;;;;;;3.95;1.40;;;19.40;50.60;;;;;;5033309;28;20063;-57
2021/03/05 11:39:56;;;;;;;4.47;1.25;;;19.30;51.50;;;;;;5032638;28;20053;-57
2021/03/05 11:42:22;;;;;;;3.65;1.33;;;19.20;50.90;;;;;;5051379;28;20449;-57
2021/03/05 11:44:48;;;;;;;5.63;1.60;;;19.20;51.30;;;;;;5033425;28;20474;-57
2021/03/05 11:47:14;;;;;;;4.82;1.52;;;19.20;51.20;;;;;;5033360;28;20040;-57
2021/03/05 11:49:39;;;;;;;3.45;1.30;;;19.20;51.10;;;;;;5048859;28;20028;-57
2021/03/05 11:52:05;;;;;;;2.35;1.10;;;19.30;51.00;;;;;;5050670;28;20554;-58
2021/03/05 11:54:31;;;;;;;5.22;1.20;;;19.30;50.80;;;;;;5051281;28;20115;-58
2021/03/05 11:56:56;;;;;;;5.63;1.65;;;19.40;50.70;;;;;;5051107;28;20021;-57
2021/03/05 11:59:22;;;;;;;9.02;1.67;;;19.40;50.30;;;;;;5033020;28;20409;-57
2021/03/05 12:01:47;;;;;;;6.53;1.50;;;19.20;50.60;;;;;;5033327;28;20021;-57
2021/03/05 12:04:13;;;;;;;6.57;1.10;;;19.20;51.00;;;;;;5051179;28;20096;-57
2021/03/05 12:06:38;;;;;;;6.20;1.35;;;19.30;50.70;;;;;;5055230;23;20493;-55
2021/03/05 12:09:05;;;;;;;6.78;1.42;;;19.30;50.60;;;;;;5050246;28;20453;-55
2021/03/05 12:11:30;;;;;;;5.53;1.55;;;19.40;50.30;;;;;;5050943;28;20021;-55
2021/03/05 12:13:56;;;;;;;12.68;1.88;;;19.50;50.20;;;;;;5051130;28;20469;-59
2021/03/05 12:16:21;;;;;;;7.80;1.45;;;19.50;49.90;;;;;;5034980;28;20472;-61
2021/03/05 12:18:47;;;;;;;5.68;1.33;;;19.50;49.80;;;;;;5070716;28;20029;-60
2021/03/05 12:21:13;;;;;;;3.85;1.40;;;19.60;49.80;;;;;;5071037;28;20017;-59
2021/03/05 12:23:39;;;;;;;6.90;1.30;;;19.60;49.70;;;;;;5071244;28;20396;-60
2021/03/05 12:26:05;;;;;;;4.57;1.50;;;19.70;49.70;;;;;;5070991;28;20028;-62
2021/03/05 12:28:31;;;;;;;5.05;1.63;;;19.70;49.70;;;;;;5052717;28;20098;-57
2021/03/05 12:30:56;;;;;;;5.70;1.20;;;19.60;49.50;;;;;;5053784;28;20049;-60
2021/03/05 12:33:22;;;;;;;4.57;1.10;;;19.50;49.70;;;;;;5074521;28;20068;-60
2021/03/05 12:35:47;;;;;;;7.60;1.40;;;19.30;49.80;;;;;;5074495;28;20474;-57
2021/03/05 12:38:13;;;;;;;5.85;1.35;;;19.20;50.10;;;;;;5074254;28;20385;-59
2021/03/05 12:40:38;;;;;;;5.68;1.02;;;19.20;50.30;;;;;;5055991;28;20413;-57
2021/03/05 12:43:05;;;;;;;3.63;1.10;;;19.30;50.10;;;;;;5056504;28;20024;-58
2021/03/05 12:45:30;;;;;;;5.00;1.10;;;19.30;49.70;;;;;;5056496;28;20115;-57
2021/03/05 12:47:56;;;;;;;5.07;1.08;;;19.30;49.80;;;;;;5056446;28;20478;-59
2021/03/05 12:50:21;;;;;;;4.15;1.02;;;19.30;49.70;;;;;;5074078;28;20532;-58
2021/03/05 12:52:47;;;;;;;3.72;1.10;;;19.30;49.80;;;;;;5074342;28;20055;-58
2021/03/05 12:55:13;;;;;;;4.13;1.10;;;19.20;49.90;;;;;;5074121;28;20028;-60
2021/03/05 12:57:38;;;;;;;4.75;1.00;;;19.10;49.80;;;;;;5056166;28;20023;-55
2021/03/05 13:00:05;;;;;;;4.47;1.25;;;19.00;49.90;;;;;;5073866;28;20442;-55
2021/03/05 13:02:31;;;;;;;5.15;1.00;;;19.10;49.90;;;;;;5074167;28;20400;-55
2021/03/05 13:04:56;;;;;;;5.88;1.10;;;19.20;49.80;;;;;;5074080;28;20017;-55
2021/03/05 13:07:22;;;;;;;7.10;1.00;;;19.20;49.60;;;;;;5072904;28;20054;-55
2021/03/05 13:09:47;;;;;;;5.40;1.10;;;19.20;49.60;;;;;;5072065;28;20021;-55
2021/03/05 13:12:13;;;;;;;5.95;1.00;;;19.20;49.60;;;;;;5054421;28;20078;-55
2021/03/05 13:14:38;;;;;;;3.60;0.85;;;19.10;49.70;;;;;;5072951;28;20102;-54
2021/03/05 13:17:04;;;;;;;5.15;1.15;;;19.20;49.70;;;;;;5072680;28;20036;-54
2021/03/05 13:19:29;;;;;;;4.65;0.95;;;19.00;49.70;;;;;;5072485;28;20016;-55
2021/03/05 13:21:55;;;;;;;4.63;1.20;;;19.00;49.80;;;;;;5055016;28;20020;-55
2021/03/05 13:24:21;;;;;;;3.95;0.90;;;19.00;49.80;;;;;;5055837;28;20462;-55